sensor_id;sensor_type;location;lat;lon;timestamp;P1;durP1;ratioP1;P2;durP2;ratioP2
15271;SDS011;7737;51.578;7.268;2022-12-29T00:03:13;0.77;;;0.60;;
15271;SDS011;7737;51.578;7.268;2022-12-29T00:06:39;0.70;;;0.70;;
15271;SDS011;7737;51.578;7.268;2022-12-29T00:10:04;0.98;;;0.65;;
15271;SDS011;7737;51.578;7.268;2022-12-29T00:13:29;0.90;;;0.70;;
15271;SDS011;7737;51.578;7.268;2022-12-29T00:17:12;0.60;;;0.50;;
15271;SDS011;7737;51.578;7.268;2022-12-29T00:20:39;0.65;;;0.65;;
15271;SDS011;7737;51.578;7.268;2022-12-29T00:24:21;1.00;;;0.60;;
15271;SDS011;7737;51.578;7.268;2022-12-29T00:28:04;0.65;;;0.50;;
15271;SDS011;7737;51.578;7.268;2022-12-29T00:31:47;1.25;;;0.73;;
15271;SDS011;7737;51.578;7.268;2022-12-29T00:35:31;1.08;;;0.75;;
15271;SDS011;7737;51.578;7.268;2022-12-29T00:39:03;0.80;;;0.68;;
15271;SDS011;7737;51.578;7.268;2022-12-29T00:42:48;1.27;;;1.02;;
15271;SDS011;7737;51.578;7.268;2022-12-29T00:46:31;1.50;;;0.90;;
15271;SDS011;7737;51.578;7.268;2022-12-29T00:49:56;1.73;;;0.90;;
15271;SDS011;7737;51.578;7.268;2022-12-29T00:53:22;0.98;;;0.82;;
15271;SDS011;7737;51.578;7.268;2022-12-29T00:56:47;0.70;;;0.70;;
15271;SDS011;7737;51.578;7.268;2022-12-29T01:00:13;0.90;;;0.90;;
15271;SDS011;7737;51.578;7.268;2022-12-29T01:03:38;1.00;;;0.80;;
15271;SDS011;7737;51.578;7.268;2022-12-29T01:07:05;0.82;;;0.50;;
15271;SDS011;7737;51.578;7.268;2022-12-29T01:10:30;1.38;;;0.70;;
15271;SDS011;7737;51.578;7.268;2022-12-29T01:13:54;1.42;;;0.70;;
15271;SDS011;7737;51.578;7.268;2022-12-29T01:17:19;0.70;;;0.70;;
15271;SDS011;7737;51.578;7.268;2022-12-29T01:20:44;3.58;;;0.60;;
15271;SDS011;7737;51.578;7.268;2022-12-29T01:24:11;1.75;;;0.88;;
15271;SDS011;7737;51.578;7.268;2022-12-29T01:27:36;1.95;;;0.70;;
15271;SDS011;7737;51.578;7.268;2022-12-29T01:31:03;3.00;;;0.60;;
15271;SDS011;7737;51.578;7.268;2022-12-29T01:34:29;0.60;;;0.52;;
15271;SDS011;7737;51.578;7.268;2022-12-29T01:37:54;0.73;;;0.50;;
15271;SDS011;7737;51.578;7.268;2022-12-29T01:41:20;1.20;;;0.55;;
15271;SDS011;7737;51.578;7.268;2022-12-29T01:44:50;0.50;;;0.50;;
15271;SDS011;7737;51.578;7.268;2022-12-29T01:48:17;0.50;;;0.40;;
15271;SDS011;7737;51.578;7.268;2022-12-29T01:51:45;0.98;;;0.63;;
15271;SDS011;7737;51.578;7.268;2022-12-29T01:55:13;0.75;;;0.55;;
15271;SDS011;7737;51.578;7.268;2022-12-29T01:58:43;0.52;;;0.50;;
15271;SDS011;7737;51.578;7.268;2022-12-29T02:02:12;0.43;;;0.30;;
15271;SDS011;7737;51.578;7.268;2022-12-29T02:05:38;1.20;;;0.57;;
15271;SDS011;7737;51.578;7.268;2022-12-29T02:09:09;0.50;;;0.50;;
15271;SDS011;7737;51.578;7.268;2022-12-29T02:12:34;0.50;;;0.40;;
15271;SDS011;7737;51.578;7.268;2022-12-29T02:16:02;1.95;;;1.00;;
15271;SDS011;7737;51.578;7.268;2022-12-29T02:23:42;0.88;;;0.50;;
15271;SDS011;7737;51.578;7.268;2022-12-29T02:27:31;1.27;;;0.50;;
15271;SDS011;7737;51.578;7.268;2022-12-29T02:31:16;0.68;;;0.35;;
15271;SDS011;7737;51.578;7.268;2022-12-29T02:34:47;0.40;;;0.30;;
15271;SDS011;7737;51.578;7.268;2022-12-29T02:38:18;0.40;;;0.40;;
15271;SDS011;7737;51.578;7.268;2022-12-29T02:41:51;0.80;;;0.40;;
15271;SDS011;7737;51.578;7.268;2022-12-29T02:45:26;0.98;;;0.50;;
15271;SDS011;7737;51.578;7.268;2022-12-29T02:49:02;1.05;;;0.40;;
15271;SDS011;7737;51.578;7.268;2022-12-29T02:52:33;0.85;;;0.50;;
15271;SDS011;7737;51.578;7.268;2022-12-29T02:56:18;0.82;;;0.40;;
15271;SDS011;7737;51.578;7.268;2022-12-29T02:59:55;2.47;;;0.52;;
15271;SDS011;7737;51.578;7.268;2022-12-29T03:03:33;1.13;;;0.40;;
15271;SDS011;7737;51.578;7.268;2022-12-29T03:07:07;0.57;;;0.40;;
15271;SDS011;7737;51.578;7.268;2022-12-29T03:10:44;1.73;;;0.60;;
15271;SDS011;7737;51.578;7.268;2022-12-29T03:14:32;1.10;;;0.40;;
15271;SDS011;7737;51.578;7.268;2022-12-29T03:18:19;1.38;;;0.63;;
15271;SDS011;7737;51.578;7.268;2022-12-29T03:21:52;1.02;;;0.52;;
15271;SDS011;7737;51.578;7.268;2022-12-29T03:25:23;1.35;;;0.50;;
15271;SDS011;7737;51.578;7.268;2022-12-29T03:28:50;2.72;;;0.80;;
15271;SDS011;7737;51.578;7.268;2022-12-29T03:32:19;2.63;;;0.80;;
15271;SDS011;7737;51.578;7.268;2022-12-29T03:35:49;1.20;;;0.57;;
15271;SDS011;7737;51.578;7.268;2022-12-29T03:39:18;2.03;;;0.60;;
15271;SDS011;7737;51.578;7.268;2022-12-29T03:42:47;1.35;;;0.70;;
15271;SDS011;7737;51.578;7.268;2022-12-29T03:46:12;1.25;;;0.60;;
15271;SDS011;7737;51.578;7.268;2022-12-29T03:49:38;2.42;;;0.57;;
15271;SDS011;7737;51.578;7.268;2022-12-29T03:53:07;0.77;;;0.50;;
15271;SDS011;7737;51.578;7.268;2022-12-29T03:56:32;2.10;;;0.50;;
15271;SDS011;7737;51.578;7.268;2022-12-29T03:59:57;1.38;;;0.60;;
15271;SDS011;7737;51.578;7.268;2022-12-29T04:03:22;2.05;;;0.60;;
15271;SDS011;7737;51.578;7.268;2022-12-29T04:06:48;1.98;;;0.60;;
15271;SDS011;7737;51.578;7.268;2022-12-29T04:10:14;2.45;;;0.60;;
15271;SDS011;7737;51.578;7.268;2022-12-29T04:13:39;1.98;;;0.60;;
15271;SDS011;7737;51.578;7.268;2022-12-29T04:17:04;1.90;;;0.70;;
15271;SDS011;7737;51.578;7.268;2022-12-29T04:20:29;0.98;;;0.50;;
15271;SDS011;7737;51.578;7.268;2022-12-29T04:23:54;2.33;;;0.60;;
15271;SDS011;7737;51.578;7.268;2022-12-29T04:27:20;1.63;;;0.60;;
15271;SDS011;7737;51.578;7.268;2022-12-29T04:30:45;0.60;;;0.47;;
15271;SDS011;7737;51.578;7.268;2022-12-29T04:34:10;0.70;;;0.50;;
15271;SDS011;7737;51.578;7.268;2022-12-29T04:37:35;1.70;;;0.57;;
15271;SDS011;7737;51.578;7.268;2022-12-29T04:41:01;0.93;;;0.35;;
15271;SDS011;7737;51.578;7.268;2022-12-29T04:44:27;0.90;;;0.40;;
15271;SDS011;7737;51.578;7.268;2022-12-29T04:47:52;0.73;;;0.40;;
15271;SDS011;7737;51.578;7.268;2022-12-29T04:51:17;1.23;;;0.50;;
15271;SDS011;7737;51.578;7.268;2022-12-29T04:54:42;0.70;;;0.50;;
15271;SDS011;7737;51.578;7.268;2022-12-29T04:58:07;1.30;;;0.50;;
15271;SDS011;7737;51.578;7.268;2022-12-29T05:01:34;1.05;;;0.45;;
15271;SDS011;7737;51.578;7.268;2022-12-29T05:04:59;1.45;;;0.50;;
15271;SDS011;7737;51.578;7.268;2022-12-29T05:08:24;1.30;;;0.50;;
15271;SDS011;7737;51.578;7.268;2022-12-29T05:11:49;0.63;;;0.40;;
15271;SDS011;7737;51.578;7.268;2022-12-29T05:15:14;1.10;;;0.35;;
15271;SDS011;7737;51.578;7.268;2022-12-29T05:18:41;2.00;;;0.45;;
15271;SDS011;7737;51.578;7.268;2022-12-29T05:22:06;0.98;;;0.50;;
15271;SDS011;7737;51.578;7.268;2022-12-29T05:25:31;0.70;;;0.50;;
15271;SDS011;7737;51.578;7.268;2022-12-29T05:28:56;0.93;;;0.32;;
15271;SDS011;7737;51.578;7.268;2022-12-29T05:32:21;1.80;;;0.60;;
15271;SDS011;7737;51.578;7.268;2022-12-29T05:35:47;2.45;;;0.50;;
15271;SDS011;7737;51.578;7.268;2022-12-29T05:39:12;0.57;;;0.40;;
15271;SDS011;7737;51.578;7.268;2022-12-29T05:42:37;1.45;;;0.50;;
15271;SDS011;7737;51.578;7.268;2022-12-29T05:46:02;1.08;;;0.50;;
15271;SDS011;7737;51.578;7.268;2022-12-29T05:49:28;1.25;;;0.50;;
15271;SDS011;7737;51.578;7.268;2022-12-29T05:52:54;1.25;;;0.70;;
15271;SDS011;7737;51.578;7.268;2022-12-29T05:56:19;2.38;;;0.60;;
15271;SDS011;7737;51.578;7.268;2022-12-29T05:59:44;1.15;;;0.40;;
15271;SDS011;7737;51.578;7.268;2022-12-29T06:03:09;1.38;;;0.50;;
15271;SDS011;7737;51.578;7.268;2022-12-29T06:06:34;1.88;;;0.50;;
15271;SDS011;7737;51.578;7.268;2022-12-29T06:10:01;1.40;;;0.45;;
15271;SDS011;7737;51.578;7.268;2022-12-29T06:13:26;0.73;;;0.40;;
15271;SDS011;7737;51.578;7.268;2022-12-29T06:16:50;0.88;;;0.40;;
15271;SDS011;7737;51.578;7.268;2022-12-29T06:20:16;0.85;;;0.43;;
15271;SDS011;7737;51.578;7.268;2022-12-29T06:23:41;0.95;;;0.50;;
15271;SDS011;7737;51.578;7.268;2022-12-29T06:27:07;2.33;;;0.50;;
15271;SDS011;7737;51.578;7.268;2022-12-29T06:30:32;1.52;;;0.68;;
15271;SDS011;7737;51.578;7.268;2022-12-29T06:33:57;4.05;;;0.80;;
15271;SDS011;7737;51.578;7.268;2022-12-29T06:37:22;1.02;;;0.50;;
15271;SDS011;7737;51.578;7.268;2022-12-29T06:40:47;2.45;;;0.60;;
15271;SDS011;7737;51.578;7.268;2022-12-29T06:44:13;2.38;;;0.60;;
15271;SDS011;7737;51.578;7.268;2022-12-29T06:47:38;3.08;;;0.70;;
15271;SDS011;7737;51.578;7.268;2022-12-29T06:51:03;1.95;;;0.63;;
15271;SDS011;7737;51.578;7.268;2022-12-29T06:54:29;3.17;;;0.85;;
15271;SDS011;7737;51.578;7.268;2022-12-29T06:57:54;2.95;;;0.82;;
15271;SDS011;7737;51.578;7.268;2022-12-29T07:01:21;1.55;;;0.60;;
15271;SDS011;7737;51.578;7.268;2022-12-29T07:04:46;2.55;;;0.60;;
15271;SDS011;7737;51.578;7.268;2022-12-29T07:08:11;1.83;;;0.93;;
15271;SDS011;7737;51.578;7.268;2022-12-29T07:11:36;1.23;;;0.63;;
15271;SDS011;7737;51.578;7.268;2022-12-29T07:15:01;2.28;;;0.70;;
15271;SDS011;7737;51.578;7.268;2022-12-29T07:18:31;4.85;;;1.30;;
15271;SDS011;7737;51.578;7.268;2022-12-29T07:21:56;2.33;;;0.88;;
15271;SDS011;7737;51.578;7.268;2022-12-29T07:25:22;2.05;;;0.63;;
15271;SDS011;7737;51.578;7.268;2022-12-29T07:28:47;4.10;;;0.70;;
15271;SDS011;7737;51.578;7.268;2022-12-29T07:32:12;1.67;;;0.90;;
15271;SDS011;7737;51.578;7.268;2022-12-29T07:35:38;3.42;;;0.73;;
15271;SDS011;7737;51.578;7.268;2022-12-29T07:39:03;1.73;;;0.60;;
15271;SDS011;7737;51.578;7.268;2022-12-29T07:42:29;1.88;;;0.77;;
15271;SDS011;7737;51.578;7.268;2022-12-29T07:45:54;2.25;;;0.60;;
15271;SDS011;7737;51.578;7.268;2022-12-29T07:49:19;2.53;;;0.70;;
15271;SDS011;7737;51.578;7.268;2022-12-29T07:52:45;3.65;;;0.60;;
15271;SDS011;7737;51.578;7.268;2022-12-29T07:56:10;1.77;;;0.70;;
15271;SDS011;7737;51.578;7.268;2022-12-29T07:59:35;3.35;;;0.95;;
15271;SDS011;7737;51.578;7.268;2022-12-29T08:03:00;2.85;;;0.75;;
15271;SDS011;7737;51.578;7.268;2022-12-29T08:06:26;4.57;;;0.70;;
15271;SDS011;7737;51.578;7.268;2022-12-29T08:09:52;2.38;;;0.90;;
15271;SDS011;7737;51.578;7.268;2022-12-29T08:13:17;2.08;;;0.70;;
15271;SDS011;7737;51.578;7.268;2022-12-29T08:16:42;2.42;;;0.75;;
15271;SDS011;7737;51.578;7.268;2022-12-29T08:20:08;3.63;;;0.80;;
15271;SDS011;7737;51.578;7.268;2022-12-29T08:23:33;2.53;;;0.82;;
15271;SDS011;7737;51.578;7.268;2022-12-29T08:26:59;5.68;;;1.10;;
15271;SDS011;7737;51.578;7.268;2022-12-29T08:30:24;4.32;;;0.93;;
15271;SDS011;7737;51.578;7.268;2022-12-29T08:33:49;3.20;;;1.02;;
15271;SDS011;7737;51.578;7.268;2022-12-29T08:37:14;4.00;;;0.90;;
15271;SDS011;7737;51.578;7.268;2022-12-29T08:40:39;4.32;;;0.90;;
15271;SDS011;7737;51.578;7.268;2022-12-29T08:44:05;4.95;;;0.93;;
15271;SDS011;7737;51.578;7.268;2022-12-29T08:47:31;3.95;;;1.00;;
15271;SDS011;7737;51.578;7.268;2022-12-29T08:50:56;4.47;;;1.20;;
15271;SDS011;7737;51.578;7.268;2022-12-29T08:54:21;6.78;;;1.10;;
15271;SDS011;7737;51.578;7.268;2022-12-29T08:57:46;3.08;;;0.80;;
15271;SDS011;7737;51.578;7.268;2022-12-29T09:01:12;3.40;;;1.02;;
15271;SDS011;7737;51.578;7.268;2022-12-29T09:04:38;4.63;;;1.20;;
15271;SDS011;7737;51.578;7.268;2022-12-29T09:08:03;3.58;;;1.10;;
15271;SDS011;7737;51.578;7.268;2022-12-29T09:11:29;5.13;;;1.13;;
15271;SDS011;7737;51.578;7.268;2022-12-29T09:14:54;4.47;;;1.23;;
15271;SDS011;7737;51.578;7.268;2022-12-29T09:18:25;3.53;;;1.05;;
15271;SDS011;7737;51.578;7.268;2022-12-29T09:21:50;5.53;;;1.35;;
15271;SDS011;7737;51.578;7.268;2022-12-29T09:25:15;4.38;;;1.08;;
15271;SDS011;7737;51.578;7.268;2022-12-29T09:28:40;7.35;;;1.40;;
15271;SDS011;7737;51.578;7.268;2022-12-29T09:32:05;5.20;;;1.00;;
15271;SDS011;7737;51.578;7.268;2022-12-29T09:35:31;4.95;;;1.10;;
15271;SDS011;7737;51.578;7.268;2022-12-29T09:38:56;5.80;;;1.20;;
15271;SDS011;7737;51.578;7.268;2022-12-29T09:42:23;4.95;;;0.95;;
15271;SDS011;7737;51.578;7.268;2022-12-29T09:46:10;4.68;;;1.23;;
15271;SDS011;7737;51.578;7.268;2022-12-29T09:49:41;4.47;;;1.23;;
15271;SDS011;7737;51.578;7.268;2022-12-29T09:53:12;2.60;;;0.90;;
15271;SDS011;7737;51.578;7.268;2022-12-29T09:56:49;4.35;;;1.23;;
15271;SDS011;7737;51.578;7.268;2022-12-29T10:00:16;6.50;;;1.20;;
15271;SDS011;7737;51.578;7.268;2022-12-29T10:03:48;4.95;;;1.65;;
15271;SDS011;7737;51.578;7.268;2022-12-29T10:07:17;4.40;;;1.25;;
15271;SDS011;7737;51.578;7.268;2022-12-29T10:10:54;4.57;;;1.10;;
15271;SDS011;7737;51.578;7.268;2022-12-29T10:14:32;5.18;;;1.30;;
15271;SDS011;7737;51.578;7.268;2022-12-29T10:18:18;3.58;;;0.95;;
15271;SDS011;7737;51.578;7.268;2022-12-29T10:21:57;4.80;;;0.98;;
15271;SDS011;7737;51.578;7.268;2022-12-29T10:25:38;5.47;;;1.00;;
15271;SDS011;7737;51.578;7.268;2022-12-29T10:29:06;6.93;;;1.00;;
15271;SDS011;7737;51.578;7.268;2022-12-29T10:32:33;4.28;;;0.95;;
15271;SDS011;7737;51.578;7.268;2022-12-29T10:36:02;5.13;;;1.27;;
15271;SDS011;7737;51.578;7.268;2022-12-29T10:39:32;4.25;;;1.08;;
15271;SDS011;7737;51.578;7.268;2022-12-29T10:43:03;6.07;;;1.10;;
15271;SDS011;7737;51.578;7.268;2022-12-29T10:46:32;4.68;;;1.23;;
15271;SDS011;7737;51.578;7.268;2022-12-29T10:50:01;5.72;;;1.70;;
15271;SDS011;7737;51.578;7.268;2022-12-29T10:53:30;6.85;;;2.38;;
15271;SDS011;7737;51.578;7.268;2022-12-29T10:57:04;7.20;;;1.83;;
15271;SDS011;7737;51.578;7.268;2022-12-29T11:00:33;6.65;;;1.42;;
15271;SDS011;7737;51.578;7.268;2022-12-29T11:04:12;5.70;;;1.38;;
15271;SDS011;7737;51.578;7.268;2022-12-29T11:07:47;4.22;;;1.42;;
15271;SDS011;7737;51.578;7.268;2022-12-29T11:11:23;6.20;;;1.33;;
15271;SDS011;7737;51.578;7.268;2022-12-29T11:15:11;5.65;;;1.50;;
15271;SDS011;7737;51.578;7.268;2022-12-29T11:18:38;5.95;;;1.23;;
15271;SDS011;7737;51.578;7.268;2022-12-29T11:22:12;3.75;;;1.10;;
15271;SDS011;7737;51.578;7.268;2022-12-29T11:25:50;4.78;;;1.33;;
15271;SDS011;7737;51.578;7.268;2022-12-29T11:29:40;5.25;;;1.00;;
15271;SDS011;7737;51.578;7.268;2022-12-29T11:33:06;6.00;;;1.55;;
15271;SDS011;7737;51.578;7.268;2022-12-29T11:36:32;4.20;;;1.30;;
15271;SDS011;7737;51.578;7.268;2022-12-29T11:40:04;5.85;;;1.20;;
15271;SDS011;7737;51.578;7.268;2022-12-29T11:43:33;5.93;;;1.65;;
15271;SDS011;7737;51.578;7.268;2022-12-29T11:47:03;4.28;;;1.42;;
15271;SDS011;7737;51.578;7.268;2022-12-29T11:50:33;6.03;;;1.20;;
15271;SDS011;7737;51.578;7.268;2022-12-29T11:54:02;6.38;;;1.60;;
15271;SDS011;7737;51.578;7.268;2022-12-29T11:57:31;4.75;;;1.20;;
15271;SDS011;7737;51.578;7.268;2022-12-29T12:01:01;5.35;;;1.23;;
15271;SDS011;7737;51.578;7.268;2022-12-29T12:04:35;5.03;;;1.20;;
15271;SDS011;7737;51.578;7.268;2022-12-29T12:08:07;6.90;;;1.85;;
15271;SDS011;7737;51.578;7.268;2022-12-29T12:11:40;7.10;;;1.20;;
15271;SDS011;7737;51.578;7.268;2022-12-29T12:15:15;5.32;;;1.20;;
15271;SDS011;7737;51.578;7.268;2022-12-29T12:18:45;6.18;;;1.45;;
15271;SDS011;7737;51.578;7.268;2022-12-29T12:22:15;6.38;;;1.58;;
15271;SDS011;7737;51.578;7.268;2022-12-29T12:25:59;5.82;;;1.40;;
15271;SDS011;7737;51.578;7.268;2022-12-29T12:29:32;5.43;;;1.20;;
15271;SDS011;7737;51.578;7.268;2022-12-29T12:33:04;6.57;;;1.38;;
15271;SDS011;7737;51.578;7.268;2022-12-29T12:44:13;8.23;;;1.20;;
15271;SDS011;7737;51.578;7.268;2022-12-29T12:48:01;4.18;;;1.20;;
15271;SDS011;7737;51.578;7.268;2022-12-29T12:51:40;5.53;;;1.20;;
15271;SDS011;7737;51.578;7.268;2022-12-29T12:55:24;5.65;;;1.48;;
15271;SDS011;7737;51.578;7.268;2022-12-29T12:59:06;7.72;;;1.58;;
15271;SDS011;7737;51.578;7.268;2022-12-29T13:02:40;7.60;;;1.60;;
15271;SDS011;7737;51.578;7.268;2022-12-29T13:06:18;5.45;;;1.40;;
15271;SDS011;7737;51.578;7.268;2022-12-29T13:10:12;5.03;;;1.67;;
15271;SDS011;7737;51.578;7.268;2022-12-29T13:13:53;5.93;;;1.35;;
15271;SDS011;7737;51.578;7.268;2022-12-29T13:17:30;4.88;;;1.23;;
15271;SDS011;7737;51.578;7.268;2022-12-29T13:21:05;7.75;;;1.48;;
15271;SDS011;7737;51.578;7.268;2022-12-29T13:24:37;5.43;;;1.52;;
15271;SDS011;7737;51.578;7.268;2022-12-29T13:28:13;5.53;;;1.23;;
15271;SDS011;7737;51.578;7.268;2022-12-29T13:31:46;5.82;;;1.67;;
15271;SDS011;7737;51.578;7.268;2022-12-29T13:35:22;6.53;;;1.52;;
15271;SDS011;7737;51.578;7.268;2022-12-29T13:38:58;5.38;;;1.38;;
15271;SDS011;7737;51.578;7.268;2022-12-29T13:42:29;8.00;;;1.73;;
15271;SDS011;7737;51.578;7.268;2022-12-29T13:45:58;5.65;;;1.30;;
15271;SDS011;7737;51.578;7.268;2022-12-29T13:49:26;6.28;;;1.63;;
15271;SDS011;7737;51.578;7.268;2022-12-29T13:52:58;5.43;;;1.50;;
15271;SDS011;7737;51.578;7.268;2022-12-29T13:56:31;9.48;;;2.30;;
15271;SDS011;7737;51.578;7.268;2022-12-29T14:00:10;7.15;;;1.40;;
15271;SDS011;7737;51.578;7.268;2022-12-29T14:03:44;4.72;;;1.50;;
15271;SDS011;7737;51.578;7.268;2022-12-29T14:07:27;5.85;;;1.35;;
15271;SDS011;7737;51.578;7.268;2022-12-29T14:10:54;6.07;;;1.60;;
15271;SDS011;7737;51.578;7.268;2022-12-29T14:14:20;7.45;;;1.77;;
15271;SDS011;7737;51.578;7.268;2022-12-29T14:21:37;6.95;;;1.45;;
15271;SDS011;7737;51.578;7.268;2022-12-29T14:29:16;5.75;;;1.30;;
15271;SDS011;7737;51.578;7.268;2022-12-29T14:33:25;5.18;;;1.38;;
15271;SDS011;7737;51.578;7.268;2022-12-29T14:36:54;7.47;;;1.58;;
15271;SDS011;7737;51.578;7.268;2022-12-29T14:40:31;6.70;;;1.60;;
15271;SDS011;7737;51.578;7.268;2022-12-29T14:44:00;6.05;;;1.42;;
15271;SDS011;7737;51.578;7.268;2022-12-29T14:47:31;5.18;;;1.60;;
15271;SDS011;7737;51.578;7.268;2022-12-29T14:50:59;5.78;;;1.60;;
15271;SDS011;7737;51.578;7.268;2022-12-29T14:54:42;5.95;;;1.27;;
15271;SDS011;7737;51.578;7.268;2022-12-29T14:58:12;7.18;;;1.80;;
15271;SDS011;7737;51.578;7.268;2022-12-29T15:01:43;4.90;;;1.38;;
15271;SDS011;7737;51.578;7.268;2022-12-29T15:05:19;5.47;;;1.55;;
15271;SDS011;7737;51.578;7.268;2022-12-29T15:08:49;7.45;;;1.60;;
15271;SDS011;7737;51.578;7.268;2022-12-29T15:12:21;5.45;;;1.30;;
15271;SDS011;7737;51.578;7.268;2022-12-29T15:15:49;6.72;;;1.30;;
15271;SDS011;7737;51.578;7.268;2022-12-29T15:19:20;6.13;;;1.30;;
15271;SDS011;7737;51.578;7.268;2022-12-29T15:22:49;4.15;;;1.20;;
15271;SDS011;7737;51.578;7.268;2022-12-29T15:26:15;4.90;;;1.00;;
15271;SDS011;7737;51.578;7.268;2022-12-29T15:29:42;4.50;;;1.05;;
15271;SDS011;7737;51.578;7.268;2022-12-29T15:33:17;5.00;;;1.33;;
15271;SDS011;7737;51.578;7.268;2022-12-29T15:36:46;6.10;;;1.20;;
15271;SDS011;7737;51.578;7.268;2022-12-29T15:40:21;6.85;;;1.50;;
15271;SDS011;7737;51.578;7.268;2022-12-29T15:44:20;5.15;;;1.20;;
15271;SDS011;7737;51.578;7.268;2022-12-29T15:47:47;4.72;;;1.40;;
15271;SDS011;7737;51.578;7.268;2022-12-29T15:51:16;6.35;;;1.65;;
15271;SDS011;7737;51.578;7.268;2022-12-29T15:54:44;7.05;;;1.70;;
15271;SDS011;7737;51.578;7.268;2022-12-29T15:58:17;5.85;;;1.25;;
15271;SDS011;7737;51.578;7.268;2022-12-29T16:01:50;6.15;;;1.20;;
15271;SDS011;7737;51.578;7.268;2022-12-29T16:05:18;5.72;;;1.40;;
15271;SDS011;7737;51.578;7.268;2022-12-29T16:08:57;7.57;;;1.52;;
15271;SDS011;7737;51.578;7.268;2022-12-29T16:12:24;5.35;;;1.40;;
15271;SDS011;7737;51.578;7.268;2022-12-29T16:15:54;5.75;;;1.40;;
15271;SDS011;7737;51.578;7.268;2022-12-29T16:19:26;5.05;;;1.33;;
15271;SDS011;7737;51.578;7.268;2022-12-29T16:22:59;5.05;;;1.50;;
15271;SDS011;7737;51.578;7.268;2022-12-29T16:26:26;7.22;;;2.00;;
15271;SDS011;7737;51.578;7.268;2022-12-29T16:29:55;5.63;;;2.03;;
15271;SDS011;7737;51.578;7.268;2022-12-29T16:33:35;5.45;;;1.45;;
15271;SDS011;7737;51.578;7.268;2022-12-29T16:37:24;5.65;;;1.60;;
15271;SDS011;7737;51.578;7.268;2022-12-29T16:40:57;4.30;;;1.20;;
15271;SDS011;7737;51.578;7.268;2022-12-29T16:44:23;4.03;;;1.20;;
15271;SDS011;7737;51.578;7.268;2022-12-29T16:48:17;6.05;;;1.40;;
15271;SDS011;7737;51.578;7.268;2022-12-29T16:51:45;6.90;;;1.20;;
15271;SDS011;7737;51.578;7.268;2022-12-29T16:55:15;5.43;;;1.20;;
15271;SDS011;7737;51.578;7.268;2022-12-29T16:58:45;5.78;;;1.60;;
15271;SDS011;7737;51.578;7.268;2022-12-29T17:02:12;7.78;;;1.70;;
15271;SDS011;7737;51.578;7.268;2022-12-29T17:05:39;5.90;;;1.33;;
15271;SDS011;7737;51.578;7.268;2022-12-29T17:09:16;5.20;;;1.45;;
15271;SDS011;7737;51.578;7.268;2022-12-29T17:12:42;6.10;;;1.63;;
15271;SDS011;7737;51.578;7.268;2022-12-29T17:16:07;5.57;;;2.00;;
15271;SDS011;7737;51.578;7.268;2022-12-29T17:19:38;5.28;;;1.60;;
15271;SDS011;7737;51.578;7.268;2022-12-29T17:23:05;6.32;;;1.58;;
15271;SDS011;7737;51.578;7.268;2022-12-29T17:26:42;6.95;;;1.42;;
15271;SDS011;7737;51.578;7.268;2022-12-29T17:30:11;4.35;;;1.20;;
15271;SDS011;7737;51.578;7.268;2022-12-29T17:33:37;3.88;;;1.25;;
15271;SDS011;7737;51.578;7.268;2022-12-29T17:37:04;3.15;;;1.30;;
15271;SDS011;7737;51.578;7.268;2022-12-29T17:40:42;4.93;;;2.17;;
15271;SDS011;7737;51.578;7.268;2022-12-29T17:44:09;2.88;;;1.60;;
15271;SDS011;7737;51.578;7.268;2022-12-29T17:47:40;3.63;;;1.17;;
15271;SDS011;7737;51.578;7.268;2022-12-29T17:51:05;2.42;;;1.10;;
15271;SDS011;7737;51.578;7.268;2022-12-29T17:54:33;3.13;;;1.03;;
15271;SDS011;7737;51.578;7.268;2022-12-29T17:57:58;2.65;;;0.80;;
15271;SDS011;7737;51.578;7.268;2022-12-29T18:01:25;4.93;;;1.05;;
15271;SDS011;7737;51.578;7.268;2022-12-29T18:04:52;3.75;;;0.95;;
15271;SDS011;7737;51.578;7.268;2022-12-29T18:08:17;3.33;;;0.90;;
15271;SDS011;7737;51.578;7.268;2022-12-29T18:11:42;2.93;;;1.40;;
15271;SDS011;7737;51.578;7.268;2022-12-29T18:15:15;5.22;;;1.40;;
15271;SDS011;7737;51.578;7.268;2022-12-29T18:18:42;3.92;;;1.42;;
15271;SDS011;7737;51.578;7.268;2022-12-29T18:22:07;2.20;;;0.80;;
15271;SDS011;7737;51.578;7.268;2022-12-29T18:25:39;3.57;;;1.30;;
15271;SDS011;7737;51.578;7.268;2022-12-29T18:29:05;5.20;;;1.45;;
15271;SDS011;7737;51.578;7.268;2022-12-29T18:32:31;3.55;;;1.98;;
15271;SDS011;7737;51.578;7.268;2022-12-29T18:35:58;4.73;;;2.27;;
15271;SDS011;7737;51.578;7.268;2022-12-29T18:39:24;7.13;;;2.10;;
15271;SDS011;7737;51.578;7.268;2022-12-29T18:42:48;3.93;;;1.63;;
15271;SDS011;7737;51.578;7.268;2022-12-29T18:46:14;5.07;;;1.77;;
15271;SDS011;7737;51.578;7.268;2022-12-29T18:49:39;7.27;;;2.20;;
15271;SDS011;7737;51.578;7.268;2022-12-29T18:53:05;5.43;;;2.00;;
15271;SDS011;7737;51.578;7.268;2022-12-29T18:56:31;6.80;;;1.92;;
15271;SDS011;7737;51.578;7.268;2022-12-29T18:59:57;5.53;;;2.00;;
15271;SDS011;7737;51.578;7.268;2022-12-29T19:03:21;6.55;;;2.42;;
15271;SDS011;7737;51.578;7.268;2022-12-29T19:06:47;9.77;;;3.10;;
15271;SDS011;7737;51.578;7.268;2022-12-29T19:10:13;4.83;;;1.97;;
15271;SDS011;7737;51.578;7.268;2022-12-29T19:13:38;9.23;;;2.00;;
15271;SDS011;7737;51.578;7.268;2022-12-29T19:17:03;9.70;;;1.93;;
15271;SDS011;7737;51.578;7.268;2022-12-29T19:20:30;5.57;;;1.57;;
15271;SDS011;7737;51.578;7.268;2022-12-29T19:23:56;9.52;;;2.65;;
15271;SDS011;7737;51.578;7.268;2022-12-29T19:27:22;8.37;;;2.10;;
15271;SDS011;7737;51.578;7.268;2022-12-29T19:30:49;9.97;;;2.70;;
15271;SDS011;7737;51.578;7.268;2022-12-29T19:34:15;8.33;;;2.10;;
15271;SDS011;7737;51.578;7.268;2022-12-29T19:37:41;12.93;;;3.97;;
15271;SDS011;7737;51.578;7.268;2022-12-29T19:41:06;11.45;;;3.20;;
15271;SDS011;7737;51.578;7.268;2022-12-29T19:44:32;11.05;;;3.00;;
15271;SDS011;7737;51.578;7.268;2022-12-29T19:47:57;11.90;;;2.60;;
15271;SDS011;7737;51.578;7.268;2022-12-29T19:51:24;11.20;;;2.63;;
15271;SDS011;7737;51.578;7.268;2022-12-29T19:54:49;11.17;;;3.27;;
15271;SDS011;7737;51.578;7.268;2022-12-29T19:58:14;13.10;;;3.27;;
15271;SDS011;7737;51.578;7.268;2022-12-29T20:01:41;9.63;;;3.53;;
15271;SDS011;7737;51.578;7.268;2022-12-29T20:05:06;11.87;;;3.17;;
15271;SDS011;7737;51.578;7.268;2022-12-29T20:08:32;13.77;;;2.87;;
15271;SDS011;7737;51.578;7.268;2022-12-29T20:11:57;11.07;;;2.87;;
15271;SDS011;7737;51.578;7.268;2022-12-29T20:15:22;12.60;;;3.43;;
15271;SDS011;7737;51.578;7.268;2022-12-29T20:18:50;11.93;;;2.97;;
15271;SDS011;7737;51.578;7.268;2022-12-29T20:22:15;12.33;;;2.83;;
15271;SDS011;7737;51.578;7.268;2022-12-29T20:25:40;13.13;;;2.90;;
15271;SDS011;7737;51.578;7.268;2022-12-29T20:29:05;11.73;;;3.10;;
15271;SDS011;7737;51.578;7.268;2022-12-29T20:32:32;10.60;;;2.77;;
15271;SDS011;7737;51.578;7.268;2022-12-29T20:36:04;9.87;;;2.50;;
15271;SDS011;7737;51.578;7.268;2022-12-29T20:39:29;8.17;;;2.40;;
15271;SDS011;7737;51.578;7.268;2022-12-29T20:42:54;9.70;;;2.50;;
15271;SDS011;7737;51.578;7.268;2022-12-29T20:46:19;11.13;;;2.17;;
15271;SDS011;7737;51.578;7.268;2022-12-29T20:49:45;10.83;;;2.33;;
15271;SDS011;7737;51.578;7.268;2022-12-29T20:53:11;8.83;;;1.80;;
15271;SDS011;7737;51.578;7.268;2022-12-29T20:56:37;11.30;;;2.77;;
15271;SDS011;7737;51.578;7.268;2022-12-29T21:00:02;12.52;;;2.10;;
15271;SDS011;7737;51.578;7.268;2022-12-29T21:03:29;10.53;;;2.40;;
15271;SDS011;7737;51.578;7.268;2022-12-29T21:06:54;7.97;;;1.80;;
15271;SDS011;7737;51.578;7.268;2022-12-29T21:10:21;9.37;;;2.13;;
15271;SDS011;7737;51.578;7.268;2022-12-29T21:13:47;11.07;;;2.17;;
15271;SDS011;7737;51.578;7.268;2022-12-29T21:17:12;8.60;;;2.00;;
15271;SDS011;7737;51.578;7.268;2022-12-29T21:20:37;8.27;;;2.50;;
15271;SDS011;7737;51.578;7.268;2022-12-29T21:24:03;8.88;;;2.28;;
15271;SDS011;7737;51.578;7.268;2022-12-29T21:27:29;8.10;;;2.00;;
15271;SDS011;7737;51.578;7.268;2022-12-29T21:31:05;10.52;;;2.40;;
15271;SDS011;7737;51.578;7.268;2022-12-29T21:34:30;6.82;;;1.95;;
15271;SDS011;7737;51.578;7.268;2022-12-29T21:37:55;11.57;;;2.53;;
15271;SDS011;7737;51.578;7.268;2022-12-29T21:41:22;9.35;;;1.88;;